sensor_id;sensor_type;location;lat;lon;timestamp;temperature;humidity
39189;DHT22;24915;50.858;4.376;2022-07-06T00:01:17;17.10;96.20
39189;DHT22;24915;50.858;4.376;2022-07-06T00:03:43;17.10;96.20
39189;DHT22;24915;50.858;4.376;2022-07-06T00:06:08;17.00;96.40
39189;DHT22;24915;50.858;4.376;2022-07-06T00:08:34;17.00;96.60
39189;DHT22;24915;50.858;4.376;2022-07-06T00:11:00;17.00;96.80
39189;DHT22;24915;50.858;4.376;2022-07-06T00:13:26;17.00;96.90
39189;DHT22;24915;50.858;4.376;2022-07-06T00:15:52;17.00;97.00
39189;DHT22;24915;50.858;4.376;2022-07-06T00:18:18;16.90;97.10
39189;DHT22;24915;50.858;4.376;2022-07-06T00:20:44;16.90;97.40
39189;DHT22;24915;50.858;4.376;2022-07-06T00:23:10;16.90;97.40
39189;DHT22;24915;50.858;4.376;2022-07-06T00:25:36;16.90;97.40
39189;DHT22;24915;50.858;4.376;2022-07-06T00:28:02;16.90;97.60
39189;DHT22;24915;50.858;4.376;2022-07-06T00:30:27;16.90;97.60
39189;DHT22;24915;50.858;4.376;2022-07-06T00:32:53;16.90;97.70
39189;DHT22;24915;50.858;4.376;2022-07-06T00:35:19;16.90;97.90
39189;DHT22;24915;50.858;4.376;2022-07-06T00:37:45;16.80;97.90
39189;DHT22;24915;50.858;4.376;2022-07-06T00:40:11;16.80;98.20
39189;DHT22;24915;50.858;4.376;2022-07-06T00:42:44;16.80;98.30
39189;DHT22;24915;50.858;4.376;2022-07-06T00:45:10;16.70;98.30
39189;DHT22;24915;50.858;4.376;2022-07-06T00:47:37;16.70;98.40
39189;DHT22;24915;50.858;4.376;2022-07-06T00:50:09;16.80;98.50
39189;DHT22;24915;50.858;4.376;2022-07-06T00:52:52;16.70;98.60
39189;DHT22;24915;50.858;4.376;2022-07-06T00:55:23;16.70;98.60
39189;DHT22;24915;50.858;4.376;2022-07-06T00:57:51;16.70;98.60
39189;DHT22;24915;50.858;4.376;2022-07-06T01:00:19;16.70;98.60
39189;DHT22;24915;50.858;4.376;2022-07-06T01:02:45;16.70;98.60
39189;DHT22;24915;50.858;4.376;2022-07-06T01:05:13;16.70;98.80
39189;DHT22;24915;50.858;4.376;2022-07-06T01:07:41;16.70;98.70
39189;DHT22;24915;50.858;4.376;2022-07-06T01:10:08;16.70;99.10
39189;DHT22;24915;50.858;4.376;2022-07-06T01:12:35;16.60;98.80
39189;DHT22;24915;50.858;4.376;2022-07-06T01:15:10;16.70;98.90
39189;DHT22;24915;50.858;4.376;2022-07-06T01:17:37;16.70;98.80
39189;DHT22;24915;50.858;4.376;2022-07-06T01:20:14;16.70;98.90
39189;DHT22;24915;50.858;4.376;2022-07-06T01:22:41;16.60;98.90
39189;DHT22;24915;50.858;4.376;2022-07-06T01:25:08;16.60;99.00
39189;DHT22;24915;50.858;4.376;2022-07-06T01:27:38;16.60;99.20
39189;DHT22;24915;50.858;4.376;2022-07-06T01:30:10;16.60;99.20
39189;DHT22;24915;50.858;4.376;2022-07-06T01:32:37;16.60;99.30
39189;DHT22;24915;50.858;4.376;2022-07-06T01:35:06;16.60;99.40
39189;DHT22;24915;50.858;4.376;2022-07-06T01:37:32;16.60;99.40
39189;DHT22;24915;50.858;4.376;2022-07-06T01:39:59;16.60;99.40
39189;DHT22;24915;50.858;4.376;2022-07-06T01:42:25;16.60;99.50
39189;DHT22;24915;50.858;4.376;2022-07-06T01:44:51;16.50;99.60
39189;DHT22;24915;50.858;4.376;2022-07-06T01:47:17;16.50;99.80
39189;DHT22;24915;50.858;4.376;2022-07-06T01:49:42;16.50;99.90
39189;DHT22;24915;50.858;4.376;2022-07-06T01:52:08;16.50;99.90
39189;DHT22;24915;50.858;4.376;2022-07-06T01:54:34;16.50;99.90
39189;DHT22;24915;50.858;4.376;2022-07-06T01:56:59;16.40;99.90
39189;DHT22;24915;50.858;4.376;2022-07-06T01:59:25;16.40;99.90
39189;DHT22;24915;50.858;4.376;2022-07-06T02:01:51;16.40;99.90
39189;DHT22;24915;50.858;4.376;2022-07-06T02:04:16;16.30;99.90
39189;DHT22;24915;50.858;4.376;2022-07-06T02:06:42;16.30;99.90
39189;DHT22;24915;50.858;4.376;2022-07-06T02:09:08;16.30;99.90
39189;DHT22;24915;50.858;4.376;2022-07-06T02:11:33;16.30;99.90
39189;DHT22;24915;50.858;4.376;2022-07-06T02:13:59;16.20;99.90
39189;DHT22;24915;50.858;4.376;2022-07-06T02:16:24;16.20;99.90
39189;DHT22;24915;50.858;4.376;2022-07-06T02:18:50;16.20;99.90
39189;DHT22;24915;50.858;4.376;2022-07-06T02:21:16;16.20;99.90
39189;DHT22;24915;50.858;4.376;2022-07-06T02:23:41;16.20;99.90
39189;DHT22;24915;50.858;4.376;2022-07-06T02:26:07;16.20;99.90
39189;DHT22;24915;50.858;4.376;2022-07-06T02:28:33;16.20;99.90
39189;DHT22;24915;50.858;4.376;2022-07-06T02:30:59;16.20;99.90
39189;DHT22;24915;50.858;4.376;2022-07-06T02:33:25;16.20;99.90
39189;DHT22;24915;50.858;4.376;2022-07-06T02:35:50;16.20;99.90
39189;DHT22;24915;50.858;4.376;2022-07-06T02:38:16;16.20;99.90
39189;DHT22;24915;50.858;4.376;2022-07-06T02:40:42;16.10;99.90
39189;DHT22;24915;50.858;4.376;2022-07-06T02:43:07;16.20;99.90
39189;DHT22;24915;50.858;4.376;2022-07-06T02:45:33;16.10;99.90
39189;DHT22;24915;50.858;4.376;2022-07-06T02:47:59;16.10;99.90
39189;DHT22;24915;50.858;4.376;2022-07-06T02:50:25;16.00;99.90
39189;DHT22;24915;50.858;4.376;2022-07-06T02:52:51;16.00;99.90
39189;DHT22;24915;50.858;4.376;2022-07-06T02:55:17;16.00;99.90
39189;DHT22;24915;50.858;4.376;2022-07-06T02:57:43;16.00;99.90
39189;DHT22;24915;50.858;4.376;2022-07-06T03:00:09;16.00;99.90
39189;DHT22;24915;50.858;4.376;2022-07-06T03:02:36;15.90;99.90
39189;DHT22;24915;50.858;4.376;2022-07-06T03:05:02;15.90;99.90
39189;DHT22;24915;50.858;4.376;2022-07-06T03:07:28;15.90;99.90
39189;DHT22;24915;50.858;4.376;2022-07-06T03:09:53;15.90;99.90
39189;DHT22;24915;50.858;4.376;2022-07-06T03:12:19;16.00;99.90
39189;DHT22;24915;50.858;4.376;2022-07-06T03:14:45;16.00;99.90
39189;DHT22;24915;50.858;4.376;2022-07-06T03:17:11;16.00;99.90
39189;DHT22;24915;50.858;4.376;2022-07-06T03:19:36;16.00;99.90
39189;DHT22;24915;50.858;4.376;2022-07-06T03:22:02;15.90;99.90
39189;DHT22;24915;50.858;4.376;2022-07-06T03:24:28;15.90;99.90
39189;DHT22;24915;50.858;4.376;2022-07-06T03:26:54;15.90;99.90
39189;DHT22;24915;50.858;4.376;2022-07-06T03:29:19;15.80;99.90
39189;DHT22;24915;50.858;4.376;2022-07-06T03:31:46;15.80;99.90
39189;DHT22;24915;50.858;4.376;2022-07-06T03:34:11;15.80;99.90
39189;DHT22;24915;50.858;4.376;2022-07-06T03:36:37;15.80;99.90
39189;DHT22;24915;50.858;4.376;2022-07-06T03:39:03;15.80;99.90
39189;DHT22;24915;50.858;4.376;2022-07-06T03:41:29;15.80;99.90
39189;DHT22;24915;50.858;4.376;2022-07-06T03:43:54;15.80;99.90
39189;DHT22;24915;50.858;4.376;2022-07-06T03:46:20;15.80;99.90
39189;DHT22;24915;50.858;4.376;2022-07-06T03:48:46;15.80;99.90
39189;DHT22;24915;50.858;4.376;2022-07-06T03:51:12;15.80;99.90
39189;DHT22;24915;50.858;4.376;2022-07-06T03:53:38;15.80;99.90
39189;DHT22;24915;50.858;4.376;2022-07-06T03:56:03;15.80;99.90
39189;DHT22;24915;50.858;4.376;2022-07-06T03:58:48;15.90;99.90
39189;DHT22;24915;50.858;4.376;2022-07-06T04:01:13;15.90;99.90
39189;DHT22;24915;50.858;4.376;2022-07-06T04:03:39;15.90;99.90
39189;DHT22;24915;50.858;4.376;2022-07-06T04:06:05;15.90;99.90
39189;DHT22;24915;50.858;4.376;2022-07-06T04:08:31;15.90;99.90
39189;DHT22;24915;50.858;4.376;2022-07-06T04:10:57;15.90;99.90
39189;DHT22;24915;50.858;4.376;2022-07-06T04:13:22;15.90;99.90
39189;DHT22;24915;50.858;4.376;2022-07-06T04:15:51;15.90;99.90
39189;DHT22;24915;50.858;4.376;2022-07-06T04:18:16;15.90;99.90
39189;DHT22;24915;50.858;4.376;2022-07-06T04:20:42;16.00;99.90
39189;DHT22;24915;50.858;4.376;2022-07-06T04:23:08;16.00;99.90
39189;DHT22;24915;50.858;4.376;2022-07-06T04:25:34;16.00;99.90
39189;DHT22;24915;50.858;4.376;2022-07-06T04:28:00;16.00;99.90
39189;DHT22;24915;50.858;4.376;2022-07-06T04:30:26;16.10;99.90
39189;DHT22;24915;50.858;4.376;2022-07-06T04:32:51;16.10;99.90
39189;DHT22;24915;50.858;4.376;2022-07-06T04:35:17;16.10;99.90
39189;DHT22;24915;50.858;4.376;2022-07-06T04:37:43;16.10;99.90
39189;DHT22;24915;50.858;4.376;2022-07-06T04:40:11;16.10;99.90
39189;DHT22;24915;50.858;4.376;2022-07-06T04:42:37;16.20;99.90
39189;DHT22;24915;50.858;4.376;2022-07-06T04:45:04;16.20;99.90
39189;DHT22;24915;50.858;4.376;2022-07-06T04:47:30;16.20;99.90
39189;DHT22;24915;50.858;4.376;2022-07-06T04:49:55;16.20;99.90
39189;DHT22;24915;50.858;4.376;2022-07-06T04:52:21;16.20;99.90
39189;DHT22;24915;50.858;4.376;2022-07-06T04:54:47;16.20;99.90
39189;DHT22;24915;50.858;4.376;2022-07-06T04:57:13;16.30;99.90
39189;DHT22;24915;50.858;4.376;2022-07-06T04:59:38;16.30;99.90
39189;DHT22;24915;50.858;4.376;2022-07-06T05:02:04;16.40;99.90
39189;DHT22;24915;50.858;4.376;2022-07-06T05:04:30;16.30;99.90
39189;DHT22;24915;50.858;4.376;2022-07-06T05:06:56;16.20;99.90
39189;DHT22;24915;50.858;4.376;2022-07-06T05:09:21;16.30;99.90
39189;DHT22;24915;50.858;4.376;2022-07-06T05:11:47;16.30;99.90
39189;DHT22;24915;50.858;4.376;2022-07-06T05:14:12;16.30;99.90
39189;DHT22;24915;50.858;4.376;2022-07-06T05:16:38;16.30;99.90
39189;DHT22;24915;50.858;4.376;2022-07-06T05:19:04;16.30;99.90
39189;DHT22;24915;50.858;4.376;2022-07-06T05:21:29;16.30;99.90
39189;DHT22;24915;50.858;4.376;2022-07-06T05:23:55;16.40;99.90
39189;DHT22;24915;50.858;4.376;2022-07-06T05:26:20;16.30;99.90
39189;DHT22;24915;50.858;4.376;2022-07-06T05:28:46;16.40;99.90
39189;DHT22;24915;50.858;4.376;2022-07-06T05:31:12;16.40;99.90
39189;DHT22;24915;50.858;4.376;2022-07-06T05:33:38;16.40;99.90
39189;DHT22;24915;50.858;4.376;2022-07-06T05:36:03;16.40;99.90
39189;DHT22;24915;50.858;4.376;2022-07-06T05:38:29;16.50;99.90
39189;DHT22;24915;50.858;4.376;2022-07-06T05:40:55;16.50;99.90
39189;DHT22;24915;50.858;4.376;2022-07-06T05:43:20;16.50;99.90
39189;DHT22;24915;50.858;4.376;2022-07-06T05:45:46;16.60;99.90
39189;DHT22;24915;50.858;4.376;2022-07-06T05:48:12;16.60;99.90
39189;DHT22;24915;50.858;4.376;2022-07-06T05:50:56;16.80;99.90
39189;DHT22;24915;50.858;4.376;2022-07-06T05:53:22;16.70;99.90
39189;DHT22;24915;50.858;4.376;2022-07-06T05:55:47;16.80;99.90
39189;DHT22;24915;50.858;4.376;2022-07-06T05:58:13;16.90;99.90
39189;DHT22;24915;50.858;4.376;2022-07-06T06:00:39;17.00;99.90
39189;DHT22;24915;50.858;4.376;2022-07-06T06:03:05;17.10;99.90
39189;DHT22;24915;50.858;4.376;2022-07-06T06:05:30;17.10;99.90
39189;DHT22;24915;50.858;4.376;2022-07-06T06:07:56;17.20;99.90
39189;DHT22;24915;50.858;4.376;2022-07-06T06:10:22;17.30;99.90
39189;DHT22;24915;50.858;4.376;2022-07-06T06:12:48;17.30;99.90
39189;DHT22;24915;50.858;4.376;2022-07-06T06:15:13;17.20;99.90
39189;DHT22;24915;50.858;4.376;2022-07-06T06:17:39;17.10;99.90
39189;DHT22;24915;50.858;4.376;2022-07-06T06:20:07;17.20;99.90
39189;DHT22;24915;50.858;4.376;2022-07-06T06:22:46;17.20;99.90
39189;DHT22;24915;50.858;4.376;2022-07-06T06:25:13;17.30;99.90
39189;DHT22;24915;50.858;4.376;2022-07-06T06:27:39;17.30;99.90
39189;DHT22;24915;50.858;4.376;2022-07-06T06:30:05;17.40;99.90
39189;DHT22;24915;50.858;4.376;2022-07-06T06:32:31;17.60;99.90
39189;DHT22;24915;50.858;4.376;2022-07-06T06:34:57;17.70;99.90
39189;DHT22;24915;50.858;4.376;2022-07-06T06:37:22;17.80;99.90
39189;DHT22;24915;50.858;4.376;2022-07-06T06:39:48;17.90;99.90
39189;DHT22;24915;50.858;4.376;2022-07-06T06:42:13;17.90;99.90
39189;DHT22;24915;50.858;4.376;2022-07-06T06:44:39;18.00;99.90
39189;DHT22;24915;50.858;4.376;2022-07-06T06:47:05;18.10;99.90
39189;DHT22;24915;50.858;4.376;2022-07-06T06:49:30;18.20;99.90
39189;DHT22;24915;50.858;4.376;2022-07-06T06:51:56;18.40;99.90
39189;DHT22;24915;50.858;4.376;2022-07-06T06:54:22;18.60;98.60
39189;DHT22;24915;50.858;4.376;2022-07-06T06:56:47;18.80;97.50
39189;DHT22;24915;50.858;4.376;2022-07-06T06:59:13;19.00;95.40
39189;DHT22;24915;50.858;4.376;2022-07-06T07:01:40;19.10;96.00
39189;DHT22;24915;50.858;4.376;2022-07-06T07:04:05;19.20;96.30
39189;DHT22;24915;50.858;4.376;2022-07-06T07:06:32;19.30;95.60
39189;DHT22;24915;50.858;4.376;2022-07-06T07:08:57;19.40;95.90
39189;DHT22;24915;50.858;4.376;2022-07-06T07:11:23;19.70;95.80
39189;DHT22;24915;50.858;4.376;2022-07-06T07:13:49;19.80;94.80
39189;DHT22;24915;50.858;4.376;2022-07-06T07:16:14;19.90;94.90
39189;DHT22;24915;50.858;4.376;2022-07-06T07:18:40;20.10;94.00
39189;DHT22;24915;50.858;4.376;2022-07-06T07:21:06;20.20;92.30
39189;DHT22;24915;50.858;4.376;2022-07-06T07:23:31;20.20;92.80
39189;DHT22;24915;50.858;4.376;2022-07-06T07:25:57;20.20;91.80
39189;DHT22;24915;50.858;4.376;2022-07-06T07:28:23;20.10;92.40
39189;DHT22;24915;50.858;4.376;2022-07-06T07:30:48;20.20;92.70
39189;DHT22;24915;50.858;4.376;2022-07-06T07:33:15;20.30;92.20
39189;DHT22;24915;50.858;4.376;2022-07-06T07:35:41;20.50;91.80
39189;DHT22;24915;50.858;4.376;2022-07-06T07:38:06;20.70;91.60
39189;DHT22;24915;50.858;4.376;2022-07-06T07:40:32;21.00;91.40
39189;DHT22;24915;50.858;4.376;2022-07-06T07:42:59;21.20;91.20
39189;DHT22;24915;50.858;4.376;2022-07-06T07:45:25;21.40;90.70
39189;DHT22;24915;50.858;4.376;2022-07-06T07:47:51;21.50;90.10
39189;DHT22;24915;50.858;4.376;2022-07-06T07:50:17;21.50;90.40
39189;DHT22;24915;50.858;4.376;2022-07-06T07:52:43;21.50;89.30
39189;DHT22;24915;50.858;4.376;2022-07-06T07:55:09;21.40;88.60
39189;DHT22;24915;50.858;4.376;2022-07-06T07:57:35;21.40;89.50
39189;DHT22;24915;50.858;4.376;2022-07-06T08:00:01;21.60;89.80
39189;DHT22;24915;50.858;4.376;2022-07-06T08:02:27;21.80;88.60
39189;DHT22;24915;50.858;4.376;2022-07-06T08:04:53;21.90;88.40
39189;DHT22;24915;50.858;4.376;2022-07-06T08:07:18;22.10;87.90
39189;DHT22;24915;50.858;4.376;2022-07-06T08:09:44;22.20;88.10
39189;DHT22;24915;50.858;4.376;2022-07-06T08:12:10;22.40;88.50
39189;DHT22;24915;50.858;4.376;2022-07-06T08:14:35;22.60;88.00
39189;DHT22;24915;50.858;4.376;2022-07-06T08:17:03;22.90;86.90
39189;DHT22;24915;50.858;4.376;2022-07-06T08:19:28;23.00;86.10
39189;DHT22;24915;50.858;4.376;2022-07-06T08:21:56;23.10;85.40
39189;DHT22;24915;50.858;4.376;2022-07-06T08:24:22;23.20;85.40
39189;DHT22;24915;50.858;4.376;2022-07-06T08:26:48;23.30;85.50
39189;DHT22;24915;50.858;4.376;2022-07-06T08:29:13;23.20;85.10
39189;DHT22;24915;50.858;4.376;2022-07-06T08:31:39;23.00;86.00
39189;DHT22;24915;50.858;4.376;2022-07-06T08:34:05;23.10;85.90
39189;DHT22;24915;50.858;4.376;2022-07-06T08:36:32;23.20;86.20
39189;DHT22;24915;50.858;4.376;2022-07-06T08:38:58;23.30;86.10
39189;DHT22;24915;50.858;4.376;2022-07-06T08:41:25;23.30;85.70
39189;DHT22;24915;50.858;4.376;2022-07-06T08:43:52;23.20;85.90
39189;DHT22;24915;50.858;4.376;2022-07-06T08:46:19;23.30;85.70
39189;DHT22;24915;50.858;4.376;2022-07-06T08:48:46;23.50;85.50
39189;DHT22;24915;50.858;4.376;2022-07-06T08:51:16;23.80;84.90
39189;DHT22;24915;50.858;4.376;2022-07-06T08:53:42;24.10;83.30
39189;DHT22;24915;50.858;4.376;2022-07-06T08:56:09;24.00;82.80
39189;DHT22;24915;50.858;4.376;2022-07-06T08:58:34;24.10;83.80
39189;DHT22;24915;50.858;4.376;2022-07-06T09:01:00;24.10;82.90
39189;DHT22;24915;50.858;4.376;2022-07-06T09:03:27;24.00;82.70
39189;DHT22;24915;50.858;4.376;2022-07-06T09:05:58;24.00;82.90
39189;DHT22;24915;50.858;4.376;2022-07-06T09:08:30;24.20;82.70
39189;DHT22;24915;50.858;4.376;2022-07-06T09:10:56;24.20;82.10
39189;DHT22;24915;50.858;4.376;2022-07-06T09:13:22;24.30;82.70
39189;DHT22;24915;50.858;4.376;2022-07-06T09:15:48;24.40;82.00
39189;DHT22;24915;50.858;4.376;2022-07-06T09:18:14;24.40;80.60
39189;DHT22;24915;50.858;4.376;2022-07-06T09:20:41;24.30;80.90
39189;DHT22;24915;50.858;4.376;2022-07-06T09:23:07;24.30;80.80
39189;DHT22;24915;50.858;4.376;2022-07-06T09:25:34;23.90;80.50
39189;DHT22;24915;50.858;4.376;2022-07-06T09:28:00;23.80;82.10
39189;DHT22;24915;50.858;4.376;2022-07-06T09:30:28;23.70;82.00
39189;DHT22;24915;50.858;4.376;2022-07-06T09:32:56;23.70;82.80
39189;DHT22;24915;50.858;4.376;2022-07-06T09:35:26;24.00;82.80
39189;DHT22;24915;50.858;4.376;2022-07-06T09:38:02;24.30;80.90
39189;DHT22;24915;50.858;4.376;2022-07-06T09:40:30;24.50;81.40
39189;DHT22;24915;50.858;4.376;2022-07-06T09:43:17;24.80;80.70
39189;DHT22;24915;50.858;4.376;2022-07-06T09:45:50;25.00;78.90
39189;DHT22;24915;50.858;4.376;2022-07-06T09:48:19;24.90;77.40
39189;DHT22;24915;50.858;4.376;2022-07-06T09:50:57;24.80;79.00
39189;DHT22;24915;50.858;4.376;2022-07-06T09:53:25;24.80;78.70
39189;DHT22;24915;50.858;4.376;2022-07-06T09:55:53;24.70;78.80
39189;DHT22;24915;50.858;4.376;2022-07-06T09:58:20;24.60;78.70
39189;DHT22;24915;50.858;4.376;2022-07-06T10:00:47;24.50;79.20
39189;DHT22;24915;50.858;4.376;2022-07-06T10:03:14;24.50;79.30
39189;DHT22;24915;50.858;4.376;2022-07-06T10:05:45;24.40;79.40
39189;DHT22;24915;50.858;4.376;2022-07-06T10:08:14;24.20;79.60
39189;DHT22;24915;50.858;4.376;2022-07-06T10:10:40;24.10;80.20
39189;DHT22;24915;50.858;4.376;2022-07-06T10:13:07;24.10;80.60
39189;DHT22;24915;50.858;4.376;2022-07-06T10:15:35;24.20;80.90
39189;DHT22;24915;50.858;4.376;2022-07-06T10:18:06;24.30;80.40
39189;DHT22;24915;50.858;4.376;2022-07-06T10:20:34;24.30;79.40
39189;DHT22;24915;50.858;4.376;2022-07-06T10:23:03;24.30;79.40
39189;DHT22;24915;50.858;4.376;2022-07-06T10:25:29;24.30;80.20
39189;DHT22;24915;50.858;4.376;2022-07-06T10:27:56;24.50;79.80
39189;DHT22;24915;50.858;4.376;2022-07-06T10:30:23;24.60;79.80
39189;DHT22;24915;50.858;4.376;2022-07-06T10:32:50;24.90;78.80
39189;DHT22;24915;50.858;4.376;2022-07-06T10:35:18;25.10;76.50
39189;DHT22;24915;50.858;4.376;2022-07-06T10:37:45;25.10;76.90
39189;DHT22;24915;50.858;4.376;2022-07-06T10:40:13;25.10;75.50
39189;DHT22;24915;50.858;4.376;2022-07-06T10:43:02;25.00;75.90
39189;DHT22;24915;50.858;4.376;2022-07-06T10:51:07;24.90;77.40
39189;DHT22;24915;50.858;4.376;2022-07-06T10:53:37;24.90;77.60
39189;DHT22;24915;50.858;4.376;2022-07-06T10:56:06;24.80;77.50
39189;DHT22;24915;50.858;4.376;2022-07-06T11:01:01;25.20;78.00
39189;DHT22;24915;50.858;4.376;2022-07-06T11:06:22;26.00;76.40
39189;DHT22;24915;50.858;4.376;2022-07-06T11:14:06;26.50;74.40
39189;DHT22;24915;50.858;4.376;2022-07-06T11:16:36;26.50;74.60
39189;DHT22;24915;50.858;4.376;2022-07-06T11:19:12;26.30;73.40
39189;DHT22;24915;50.858;4.376;2022-07-06T11:24:30;25.60;74.80
39189;DHT22;24915;50.858;4.376;2022-07-06T11:26:58;25.30;75.80
39189;DHT22;24915;50.858;4.376;2022-07-06T11:29:25;25.20;75.40
39189;DHT22;24915;50.858;4.376;2022-07-06T11:31:56;25.10;75.00
39189;DHT22;24915;50.858;4.376;2022-07-06T11:34:26;25.10;76.10
39189;DHT22;24915;50.858;4.376;2022-07-06T11:37:06;25.20;76.10
39189;DHT22;24915;50.858;4.376;2022-07-06T11:39:34;25.20;76.20
39189;DHT22;24915;50.858;4.376;2022-07-06T11:42:01;25.50;76.50
39189;DHT22;24915;50.858;4.376;2022-07-06T11:44:29;25.70;75.40
39189;DHT22;24915;50.858;4.376;2022-07-06T11:46:55;26.10;74.90
39189;DHT22;24915;50.858;4.376;2022-07-06T11:49:23;26.30;72.70
39189;DHT22;24915;50.858;4.376;2022-07-06T11:51:49;26.60;72.70
39189;DHT22;24915;50.858;4.376;2022-07-06T11:54:19;26.40;71.10
39189;DHT22;24915;50.858;4.376;2022-07-06T11:56:51;25.90;73.20
39189;DHT22;24915;50.858;4.376;2022-07-06T11:59:24;25.80;72.50
39189;DHT22;24915;50.858;4.376;2022-07-06T12:04:24;25.80;72.10
39189;DHT22;24915;50.858;4.376;2022-07-06T12:06:50;26.00;73.40
39189;DHT22;24915;50.858;4.376;2022-07-06T12:09:15;26.20;71.50
39189;DHT22;24915;50.858;4.376;2022-07-06T12:11:45;26.40;71.30
39189;DHT22;24915;50.858;4.376;2022-07-06T12:14:19;26.80;70.50
39189;DHT22;24915;50.858;4.376;2022-07-06T12:16:48;27.30;70.40
39189;DHT22;24915;50.858;4.376;2022-07-06T12:19:14;27.50;69.20
39189;DHT22;24915;50.858;4.376;2022-07-06T12:21:48;27.70;67.80
39189;DHT22;24915;50.858;4.376;2022-07-06T12:24:22;27.40;67.50
39189;DHT22;24915;50.858;4.376;2022-07-06T12:26:49;26.80;68.50
39189;DHT22;24915;50.858;4.376;2022-07-06T12:29:15;26.50;69.70
39189;DHT22;24915;50.858;4.376;2022-07-06T12:31:56;26.40;70.20
39189;DHT22;24915;50.858;4.376;2022-07-06T12:34:23;26.60;69.70
39189;DHT22;24915;50.858;4.376;2022-07-06T12:36:57;26.70;69.60
39189;DHT22;24915;50.858;4.376;2022-07-06T12:39:26;26.90;69.70
39189;DHT22;24915;50.858;4.376;2022-07-06T12:41:54;27.30;69.60
39189;DHT22;24915;50.858;4.376;2022-07-06T12:44:25;27.80;70.40
39189;DHT22;24915;50.858;4.376;2022-07-06T12:49:27;28.90;67.60
39189;DHT22;24915;50.858;4.376;2022-07-06T12:54:28;29.00;66.20
39189;DHT22;24915;50.858;4.376;2022-07-06T13:02:31;27.20;68.70
39189;DHT22;24915;50.858;4.376;2022-07-06T13:07:28;27.50;70.50
39189;DHT22;24915;50.858;4.376;2022-07-06T13:09:56;27.90;68.30
39189;DHT22;24915;50.858;4.376;2022-07-06T13:12:22;27.90;66.80
39189;DHT22;24915;50.858;4.376;2022-07-06T13:14:48;27.60;67.50
39189;DHT22;24915;50.858;4.376;2022-07-06T13:17:14;27.50;68.00
39189;DHT22;24915;50.858;4.376;2022-07-06T13:19:40;27.20;68.00
39189;DHT22;24915;50.858;4.376;2022-07-06T13:22:06;26.80;68.80
39189;DHT22;24915;50.858;4.376;2022-07-06T13:24:31;26.50;69.30
39189;DHT22;24915;50.858;4.376;2022-07-06T13:26:57;26.40;71.10
39189;DHT22;24915;50.858;4.376;2022-07-06T13:29:23;27.00;71.20
39189;DHT22;24915;50.858;4.376;2022-07-06T13:31:49;27.10;68.70
39189;DHT22;24915;50.858;4.376;2022-07-06T13:34:15;27.00;68.70
39189;DHT22;24915;50.858;4.376;2022-07-06T13:36:40;26.90;69.80
39189;DHT22;24915;50.858;4.376;2022-07-06T13:39:07;27.30;70.00
39189;DHT22;24915;50.858;4.376;2022-07-06T13:41:33;27.50;69.30
39189;DHT22;24915;50.858;4.376;2022-07-06T13:44:00;27.90;69.10
39189;DHT22;24915;50.858;4.376;2022-07-06T13:46:27;28.20;67.40
39189;DHT22;24915;50.858;4.376;2022-07-06T13:48:54;28.60;65.80
39189;DHT22;24915;50.858;4.376;2022-07-06T13:51:20;28.50;65.10
39189;DHT22;24915;50.858;4.376;2022-07-06T13:53:46;28.10;67.20
39189;DHT22;24915;50.858;4.376;2022-07-06T13:56:12;28.40;67.60
39189;DHT22;24915;50.858;4.376;2022-07-06T13:58:38;28.90;67.30
39189;DHT22;24915;50.858;4.376;2022-07-06T14:01:04;29.10;66.60
39189;DHT22;24915;50.858;4.376;2022-07-06T14:03:30;29.20;66.00
39189;DHT22;24915;50.858;4.376;2022-07-06T14:06:00;29.20;66.00
39189;DHT22;24915;50.858;4.376;2022-07-06T14:08:27;29.20;63.70
39189;DHT22;24915;50.858;4.376;2022-07-06T14:10:54;28.50;64.50
39189;DHT22;24915;50.858;4.376;2022-07-06T14:13:20;28.30;67.00
39189;DHT22;24915;50.858;4.376;2022-07-06T14:15:47;28.50;66.70
39189;DHT22;24915;50.858;4.376;2022-07-06T14:18:13;28.60;66.00
39189;DHT22;24915;50.858;4.376;2022-07-06T14:20:40;28.60;66.10
39189;DHT22;24915;50.858;4.376;2022-07-06T14:23:06;28.20;66.10
39189;DHT22;24915;50.858;4.376;2022-07-06T14:25:32;28.00;66.70
39189;DHT22;24915;50.858;4.376;2022-07-06T14:27:58;27.80;67.80
39189;DHT22;24915;50.858;4.376;2022-07-06T14:30:24;27.60;67.90
39189;DHT22;24915;50.858;4.376;2022-07-06T14:32:49;27.50;67.70
39189;DHT22;24915;50.858;4.376;2022-07-06T14:35:16;27.40;68.50
39189;DHT22;24915;50.858;4.376;2022-07-06T14:37:42;27.20;68.60
39189;DHT22;24915;50.858;4.376;2022-07-06T14:40:08;27.00;69.40
39189;DHT22;24915;50.858;4.376;2022-07-06T14:42:34;27.00;69.70
39189;DHT22;24915;50.858;4.376;2022-07-06T14:45:00;27.00;69.30
39189;DHT22;24915;50.858;4.376;2022-07-06T14:47:26;26.60;69.10
39189;DHT22;24915;50.858;4.376;2022-07-06T14:49:51;26.10;70.80
39189;DHT22;24915;50.858;4.376;2022-07-06T14:52:18;26.00;72.40
39189;DHT22;24915;50.858;4.376;2022-07-06T14:54:44;26.10;71.50
39189;DHT22;24915;50.858;4.376;2022-07-06T14:57:09;26.30;72.20
39189;DHT22;24915;50.858;4.376;2022-07-06T14:59:35;26.50;71.70
39189;DHT22;24915;50.858;4.376;2022-07-06T15:02:02;26.70;71.50
39189;DHT22;24915;50.858;4.376;2022-07-06T15:04:28;26.80;69.60
39189;DHT22;24915;50.858;4.376;2022-07-06T15:06:54;26.40;70.70
39189;DHT22;24915;50.858;4.376;2022-07-06T15:09:20;26.00;70.60
39189;DHT22;24915;50.858;4.376;2022-07-06T15:11:45;25.60;72.10
39189;DHT22;24915;50.858;4.376;2022-07-06T15:14:12;25.30;72.40
39189;DHT22;24915;50.858;4.376;2022-07-06T15:16:38;25.10;73.20
39189;DHT22;24915;50.858;4.376;2022-07-06T15:19:04;25.00;74.00
39189;DHT22;24915;50.858;4.376;2022-07-06T15:21:30;25.00;74.40
39189;DHT22;24915;50.858;4.376;2022-07-06T15:23:56;25.10;74.20
39189;DHT22;24915;50.858;4.376;2022-07-06T15:26:22;25.40;74.70
39189;DHT22;24915;50.858;4.376;2022-07-06T15:28:50;25.60;73.20
39189;DHT22;24915;50.858;4.376;2022-07-06T15:31:15;25.60;73.20
39189;DHT22;24915;50.858;4.376;2022-07-06T15:33:42;25.60;73.40
39189;DHT22;24915;50.858;4.376;2022-07-06T15:36:08;25.50;73.90
39189;DHT22;24915;50.858;4.376;2022-07-06T15:38:33;25.50;74.20
39189;DHT22;24915;50.858;4.376;2022-07-06T15:41:00;25.60;74.20
39189;DHT22;24915;50.858;4.376;2022-07-06T15:43:31;25.60;73.80
39189;DHT22;24915;50.858;4.376;2022-07-06T15:45:59;25.70;73.40
39189;DHT22;24915;50.858;4.376;2022-07-06T15:48:27;25.60;73.00
39189;DHT22;24915;50.858;4.376;2022-07-06T15:50:53;25.50;73.80
39189;DHT22;24915;50.858;4.376;2022-07-06T15:53:19;25.40;74.50
39189;DHT22;24915;50.858;4.376;2022-07-06T15:55:45;25.40;74.10
39189;DHT22;24915;50.858;4.376;2022-07-06T15:58:11;25.50;73.90
39189;DHT22;24915;50.858;4.376;2022-07-06T16:00:38;25.70;73.50
39189;DHT22;24915;50.858;4.376;2022-07-06T16:03:04;25.60;73.30